Air Navigation Services of Czech Republic
Airport: LKCS Updated:  20.05.2022 20:00:32  UTC
 METAR LKCS 20.05. 20:00 ...
METAR LKCS 202000Z AUTO 33012G33KT 240V020 9999 FEW035/// SCT100/// OVC160/// 24/13 Q1017=